CDG7944 ZHCC-ZGSD
Flight info
| Callsign | CDG7944 |
|---|---|
| Flight time | N/A |
| Altitude | 30100 |
| Route | DUDBI W37 OMBEB R473 NOLON W90 POU W7 ZUH |
| Aircraft | B738/M-SDE1E2E3FGHIJ2J3J4J5M1RWXY/LB1D1 |
Departure
| Time | 2026-05-08 06:29 |
|---|---|
| Airport | Zhengzhou Xinzheng International Airport (ZHCC) |
Arrival
| Time | N/A |
|---|---|
| Airport | Zhuhai Jinwan Airport (ZGSD) |
| Time | Latitude | Longitude | Altitude | Speed | Heading |
|---|---|---|---|---|---|
| 2026-05-08 06:05 | 34.52119 | 113.84976 | 503 ft | 0 kts | 291° |
| 2026-05-08 06:17 | 34.52110 | 113.85001 | 503 ft | 2 kts | 295° |
| 2026-05-08 06:17 | 34.52103 | 113.85019 | 503 ft | 2 kts | 298° |
| 2026-05-08 06:17 | 34.52093 | 113.85034 | 503 ft | 2 kts | 323° |
| 2026-05-08 06:18 | 34.52080 | 113.85039 | 503 ft | 1 kts | 18° |
| 2026-05-08 06:18 | 34.52073 | 113.85036 | 503 ft | 0 kts | 28° |
| 2026-05-08 06:21 | 34.52074 | 113.85036 | 503 ft | 0 kts | 28° |
| 2026-05-08 06:21 | 34.52089 | 113.85048 | 503 ft | 7 kts | 37° |
| 2026-05-08 06:21 | 34.52162 | 113.85101 | 503 ft | 16 kts | 51° |
| 2026-05-08 06:21 | 34.52155 | 113.85193 | 503 ft | 17 kts | 112° |
| 2026-05-08 06:22 | 34.52125 | 113.85280 | 503 ft | 5 kts | 112° |
| 2026-05-08 06:22 | 34.52105 | 113.85338 | 503 ft | 10 kts | 110° |
| 2026-05-08 06:22 | 34.52120 | 113.85407 | 503 ft | 10 kts | 19° |
| 2026-05-08 06:22 | 34.52206 | 113.85449 | 503 ft | 17 kts | 23° |
| 2026-05-08 06:23 | 34.52333 | 113.85513 | 503 ft | 22 kts | 22° |
| 2026-05-08 06:23 | 34.52469 | 113.85580 | 503 ft | 23 kts | 22° |
| 2026-05-08 06:23 | 34.52598 | 113.85646 | 503 ft | 22 kts | 23° |
| 2026-05-08 06:23 | 34.52754 | 113.85723 | 503 ft | 26 kts | 22° |
| 2026-05-08 06:24 | 34.52927 | 113.85810 | 503 ft | 25 kts | 22° |
| 2026-05-08 06:24 | 34.53072 | 113.85832 | 503 ft | 19 kts | 286° |
| 2026-05-08 06:24 | 34.53098 | 113.85746 | 503 ft | 12 kts | 294° |
| 2026-05-08 06:24 | 34.53142 | 113.85619 | 503 ft | 20 kts | 292° |
| 2026-05-08 06:25 | 34.53205 | 113.85434 | 503 ft | 27 kts | 292° |
| 2026-05-08 06:25 | 34.53281 | 113.85208 | 503 ft | 25 kts | 293° |
| 2026-05-08 06:25 | 34.53350 | 113.85009 | 503 ft | 26 kts | 294° |
| 2026-05-08 06:25 | 34.53423 | 113.84796 | 503 ft | 28 kts | 292° |
| 2026-05-08 06:26 | 34.53493 | 113.84587 | 503 ft | 28 kts | 292° |
| 2026-05-08 06:26 | 34.53570 | 113.84363 | 503 ft | 26 kts | 294° |
| 2026-05-08 06:26 | 34.53640 | 113.84156 | 503 ft | 28 kts | 292° |
| 2026-05-08 06:26 | 34.53713 | 113.83975 | 503 ft | 17 kts | 334° |
| 2026-05-08 06:27 | 34.53823 | 113.84009 | 503 ft | 12 kts | 22° |
| 2026-05-08 06:27 | 34.53845 | 113.84020 | 503 ft | 0 kts | 23° |
| 2026-05-08 06:27 | 34.53854 | 113.84025 | 503 ft | 6 kts | 23° |
| 2026-05-08 06:27 | 34.53929 | 113.84082 | 503 ft | 18 kts | 71° |
| 2026-05-08 06:28 | 34.53911 | 113.84182 | 503 ft | 6 kts | 112° |
| 2026-05-08 06:28 | 34.53859 | 113.84338 | 503 ft | 47 kts | 112° |
| 2026-05-08 06:28 | 34.53641 | 113.84980 | 503 ft | 113 kts | 113° |
| 2026-05-08 06:28 | 34.53273 | 113.86058 | 572 ft | 160 kts | 112° |
| 2026-05-08 06:29 | 34.52837 | 113.87363 | 1167 ft | 169 kts | 112° |
| 2026-05-08 06:29 | 34.52421 | 113.88681 | 1940 ft | 176 kts | 111° |
| 2026-05-08 06:29 | 34.51928 | 113.90206 | 2224 ft | 207 kts | 113° |
| 2026-05-08 06:29 | 34.51320 | 113.91821 | 2879 ft | 214 kts | 116° |
| 2026-05-08 06:30 | 34.50651 | 113.93493 | 3436 ft | 226 kts | 114° |
| 2026-05-08 06:30 | 34.50056 | 113.95359 | 3823 ft | 244 kts | 110° |
| 2026-05-08 06:30 | 34.49446 | 113.97326 | 4234 ft | 259 kts | 111° |
| 2026-05-08 06:30 | 34.48766 | 113.99377 | 5019 ft | 265 kts | 112° |
| 2026-05-08 06:31 | 34.48044 | 114.01456 | 5909 ft | 268 kts | 112° |
| 2026-05-08 06:31 | 34.47309 | 114.03556 | 6737 ft | 274 kts | 113° |
| 2026-05-08 06:31 | 34.46235 | 114.05480 | 7530 ft | 281 kts | 134° |
| 2026-05-08 06:31 | 34.44575 | 114.06763 | 8302 ft | 289 kts | 158° |
| 2026-05-08 06:32 | 34.42612 | 114.07173 | 9050 ft | 295 kts | 180° |
| 2026-05-08 06:32 | 34.40541 | 114.07000 | 9584 ft | 301 kts | 183° |
| 2026-05-08 06:32 | 34.38443 | 114.07027 | 9811 ft | 303 kts | 175° |
| 2026-05-08 06:32 | 34.36347 | 114.07322 | 9848 ft | 303 kts | 172° |
| 2026-05-08 06:33 | 34.34259 | 114.07636 | 9847 ft | 302 kts | 172° |
| 2026-05-08 06:33 | 34.32205 | 114.08163 | 9845 ft | 300 kts | 163° |
| 2026-05-08 06:33 | 34.30251 | 114.09038 | 9848 ft | 300 kts | 156° |
| 2026-05-08 06:33 | 34.28355 | 114.10108 | 9846 ft | 300 kts | 153° |
| 2026-05-08 06:34 | 34.26485 | 114.11216 | 9845 ft | 299 kts | 153° |
| 2026-05-08 06:34 | 34.24617 | 114.12328 | 9848 ft | 299 kts | 153° |
| 2026-05-08 06:34 | 34.22717 | 114.13433 | 10222 ft | 307 kts | 154° |
| 2026-05-08 06:34 | 34.20757 | 114.14556 | 10834 ft | 318 kts | 154° |
| 2026-05-08 06:35 | 34.18721 | 114.15724 | 11148 ft | 338 kts | 154° |
| 2026-05-08 06:35 | 34.16598 | 114.16941 | 11429 ft | 357 kts | 154° |
| 2026-05-08 06:35 | 34.14246 | 114.18290 | 11945 ft | 368 kts | 154° |
| 2026-05-08 06:35 | 34.11913 | 114.19627 | 12596 ft | 374 kts | 155° |
| 2026-05-08 06:36 | 34.09546 | 114.20984 | 13294 ft | 378 kts | 155° |
| 2026-05-08 06:36 | 34.07163 | 114.22350 | 13958 ft | 383 kts | 155° |
| 2026-05-08 06:36 | 34.04746 | 114.23734 | 14595 ft | 388 kts | 155° |
| 2026-05-08 06:36 | 34.02290 | 114.25138 | 15239 ft | 392 kts | 155° |
| 2026-05-08 06:37 | 33.99797 | 114.26561 | 15864 ft | 397 kts | 155° |
| 2026-05-08 06:37 | 33.97314 | 114.27983 | 16457 ft | 402 kts | 155° |
| 2026-05-08 06:37 | 33.94775 | 114.29436 | 17040 ft | 406 kts | 155° |
| 2026-05-08 06:37 | 33.92201 | 114.30908 | 17614 ft | 411 kts | 155° |
| 2026-05-08 06:38 | 33.89599 | 114.32411 | 18200 ft | 414 kts | 156° |
| 2026-05-08 06:38 | 33.86983 | 114.33915 | 18792 ft | 417 kts | 156° |
| 2026-05-08 06:38 | 33.84383 | 114.35405 | 19323 ft | 421 kts | 156° |
| 2026-05-08 06:38 | 33.81725 | 114.36926 | 19897 ft | 424 kts | 156° |
| 2026-05-08 06:39 | 33.79045 | 114.38457 | 20423 ft | 428 kts | 156° |
| 2026-05-08 06:39 | 33.76345 | 114.39997 | 20943 ft | 431 kts | 157° |
| 2026-05-08 06:39 | 33.73626 | 114.41547 | 21444 ft | 434 kts | 157° |
| 2026-05-08 06:39 | 33.70888 | 114.43106 | 21928 ft | 437 kts | 157° |
| 2026-05-08 06:40 | 33.68138 | 114.44671 | 22394 ft | 440 kts | 157° |
| 2026-05-08 06:40 | 33.65335 | 114.46264 | 22864 ft | 443 kts | 158° |
| 2026-05-08 06:40 | 33.62541 | 114.47851 | 23268 ft | 446 kts | 158° |
| 2026-05-08 06:40 | 33.59762 | 114.49430 | 23698 ft | 449 kts | 158° |
| 2026-05-08 06:41 | 33.56894 | 114.51057 | 24122 ft | 451 kts | 158° |
| 2026-05-08 06:41 | 33.54052 | 114.52669 | 24514 ft | 454 kts | 158° |
| 2026-05-08 06:41 | 33.51181 | 114.54295 | 24881 ft | 457 kts | 159° |
| 2026-05-08 06:41 | 33.48341 | 114.55912 | 25277 ft | 460 kts | 159° |
| 2026-05-08 06:42 | 33.45441 | 114.57559 | 25653 ft | 462 kts | 159° |
| 2026-05-08 06:42 | 33.42514 | 114.59216 | 25753 ft | 466 kts | 159° |
| 2026-05-08 06:42 | 33.39569 | 114.60878 | 25772 ft | 466 kts | 159° |
| 2026-05-08 06:42 | 33.36638 | 114.62529 | 25775 ft | 464 kts | 159° |
| 2026-05-08 06:43 | 33.33785 | 114.64135 | 25776 ft | 464 kts | 159° |
| 2026-05-08 06:43 | 33.30802 | 114.65815 | 25794 ft | 464 kts | 159° |
| 2026-05-08 06:43 | 33.27860 | 114.67468 | 26046 ft | 468 kts | 159° |
| 2026-05-08 06:43 | 33.24910 | 114.69108 | 26488 ft | 467 kts | 161° |
| 2026-05-08 06:44 | 33.21855 | 114.70349 | 26837 ft | 462 kts | 171° |
| 2026-05-08 06:44 | 33.18704 | 114.70982 | 27175 ft | 457 kts | 181° |
| 2026-05-08 06:44 | 33.15560 | 114.71099 | 27632 ft | 450 kts | 187° |
| 2026-05-08 06:44 | 33.12486 | 114.70876 | 28128 ft | 444 kts | 191° |
| 2026-05-08 06:45 | 33.09412 | 114.70513 | 28611 ft | 442 kts | 192° |
| 2026-05-08 06:45 | 33.06362 | 114.70176 | 29095 ft | 440 kts | 192° |
| 2026-05-08 06:45 | 33.03298 | 114.69858 | 29528 ft | 440 kts | 192° |
| 2026-05-08 06:45 | 33.00257 | 114.69554 | 30018 ft | 438 kts | 192° |
| 2026-05-08 06:46 | 32.97211 | 114.69253 | 30221 ft | 440 kts | 192° |
| 2026-05-08 06:46 | 32.94149 | 114.68951 | 30263 ft | 442 kts | 192° |
| 2026-05-08 06:46 | 32.88042 | 114.68351 | 30272 ft | 438 kts | 192° |
| 2026-05-08 06:47 | 32.81968 | 114.67779 | 30275 ft | 438 kts | 192° |
| 2026-05-08 06:47 | 32.75928 | 114.67213 | 30275 ft | 438 kts | 191° |
| 2026-05-08 06:48 | 32.69845 | 114.66643 | 30276 ft | 438 kts | 191° |
| 2026-05-08 06:48 | 32.63770 | 114.66071 | 30276 ft | 439 kts | 191° |
| 2026-05-08 06:49 | 32.57670 | 114.65493 | 30276 ft | 439 kts | 191° |
| 2026-05-08 06:49 | 32.51584 | 114.64919 | 30277 ft | 439 kts | 191° |
| 2026-05-08 06:50 | 32.45531 | 114.64349 | 30277 ft | 439 kts | 191° |
| 2026-05-08 06:50 | 32.39440 | 114.63776 | 30278 ft | 439 kts | 191° |
| 2026-05-08 06:51 | 32.33353 | 114.63187 | 30279 ft | 439 kts | 191° |
| 2026-05-08 06:51 | 32.27261 | 114.62595 | 30279 ft | 439 kts | 191° |
| 2026-05-08 06:52 | 32.21169 | 114.62005 | 30280 ft | 439 kts | 191° |
| 2026-05-08 06:52 | 32.15126 | 114.61420 | 30280 ft | 439 kts | 191° |
| 2026-05-08 06:53 | 32.09000 | 114.60826 | 30281 ft | 439 kts | 191° |
| 2026-05-08 06:53 | 32.02950 | 114.60240 | 30281 ft | 439 kts | 191° |
| 2026-05-08 06:54 | 31.96862 | 114.59651 | 30282 ft | 440 kts | 192° |
| 2026-05-08 06:54 | 31.90751 | 114.59056 | 30283 ft | 441 kts | 191° |
| 2026-05-08 06:55 | 31.84641 | 114.58466 | 30283 ft | 440 kts | 191° |
| 2026-05-08 06:55 | 31.78528 | 114.57877 | 30286 ft | 440 kts | 191° |
| 2026-05-08 06:56 | 31.72409 | 114.57289 | 30291 ft | 440 kts | 192° |
| 2026-05-08 06:56 | 31.66335 | 114.56706 | 30291 ft | 441 kts | 192° |
| 2026-05-08 06:57 | 31.60505 | 114.56143 | 30291 ft | 440 kts | 192° |
| 2026-05-08 06:57 | 31.54401 | 114.55557 | 30291 ft | 440 kts | 192° |
| 2026-05-08 06:58 | 31.48292 | 114.54972 | 30291 ft | 440 kts | 192° |
| 2026-05-08 06:58 | 31.42175 | 114.54389 | 30291 ft | 440 kts | 192° |
| 2026-05-08 06:59 | 31.36063 | 114.53805 | 30291 ft | 440 kts | 192° |
| 2026-05-08 06:59 | 31.29963 | 114.53224 | 30291 ft | 440 kts | 192° |
| 2026-05-08 07:00 | 31.24007 | 114.52007 | 30292 ft | 429 kts | 204° |
| 2026-05-08 07:00 | 31.18548 | 114.49504 | 30292 ft | 421 kts | 212° |
| 2026-05-08 07:01 | 31.13259 | 114.46563 | 30292 ft | 420 kts | 213° |
| 2026-05-08 07:01 | 31.07965 | 114.43656 | 30293 ft | 420 kts | 213° |
| 2026-05-08 07:02 | 31.02666 | 114.40760 | 30293 ft | 420 kts | 213° |
| 2026-05-08 07:02 | 30.97374 | 114.37874 | 30295 ft | 423 kts | 213° |
| 2026-05-08 07:03 | 30.91949 | 114.34916 | 30296 ft | 436 kts | 213° |
| 2026-05-08 07:03 | 30.86378 | 114.31887 | 30297 ft | 447 kts | 212° |
| 2026-05-08 07:04 | 30.80711 | 114.28811 | 30299 ft | 456 kts | 213° |
| 2026-05-08 07:04 | 30.74961 | 114.25676 | 30299 ft | 456 kts | 213° |
| 2026-05-08 07:05 | 30.69213 | 114.22556 | 30300 ft | 455 kts | 213° |
| 2026-05-08 07:05 | 30.63482 | 114.19450 | 30300 ft | 455 kts | 213° |
| 2026-05-08 07:06 | 30.57730 | 114.16334 | 30300 ft | 457 kts | 213° |
| 2026-05-08 07:06 | 30.52012 | 114.13233 | 30301 ft | 458 kts | 213° |
| 2026-05-08 07:07 | 30.46221 | 114.10101 | 30298 ft | 455 kts | 213° |
| 2026-05-08 07:07 | 30.40510 | 114.07028 | 30300 ft | 456 kts | 213° |
| 2026-05-08 07:08 | 30.34743 | 114.03923 | 30299 ft | 457 kts | 213° |
| 2026-05-08 07:08 | 30.28983 | 114.00830 | 30298 ft | 456 kts | 213° |
| 2026-05-08 07:09 | 30.23230 | 113.97744 | 30299 ft | 456 kts | 213° |
| 2026-05-08 07:09 | 30.18417 | 113.95139 | 30299 ft | 457 kts | 213° |
| 2026-05-08 07:10 | 30.12684 | 113.92084 | 30298 ft | 457 kts | 214° |
| 2026-05-08 07:10 | 30.06895 | 113.88996 | 30298 ft | 459 kts | 213° |
| 2026-05-08 07:11 | 30.01111 | 113.85896 | 30294 ft | 459 kts | 213° |
| 2026-05-08 07:11 | 29.95329 | 113.82823 | 30295 ft | 454 kts | 213° |
| 2026-05-08 07:12 | 29.89538 | 113.79895 | 30294 ft | 459 kts | 208° |
| 2026-05-08 07:12 | 29.83199 | 113.78203 | 30294 ft | 476 kts | 196° |
| 2026-05-08 07:13 | 29.76532 | 113.77646 | 30292 ft | 482 kts | 192° |
| 2026-05-08 07:13 | 29.69870 | 113.77246 | 30291 ft | 482 kts | 192° |
| 2026-05-08 07:14 | 29.63179 | 113.76799 | 30276 ft | 481 kts | 192° |
| 2026-05-08 07:14 | 29.56508 | 113.76341 | 30263 ft | 480 kts | 192° |
| 2026-05-08 07:15 | 29.49840 | 113.75876 | 30257 ft | 480 kts | 192° |
| 2026-05-08 07:15 | 29.43167 | 113.75414 | 30256 ft | 480 kts | 192° |
| 2026-05-08 07:16 | 29.36489 | 113.74953 | 30254 ft | 480 kts | 192° |
| 2026-05-08 07:16 | 29.29817 | 113.74493 | 30253 ft | 479 kts | 192° |
| 2026-05-08 07:17 | 29.23142 | 113.74050 | 30251 ft | 481 kts | 191° |
| 2026-05-08 07:17 | 29.16440 | 113.74142 | 30250 ft | 487 kts | 186° |
| 2026-05-08 07:18 | 29.09679 | 113.74433 | 30249 ft | 485 kts | 186° |
| 2026-05-08 07:18 | 29.02938 | 113.74652 | 30248 ft | 485 kts | 186° |
| 2026-05-08 07:19 | 28.96191 | 113.74852 | 30247 ft | 485 kts | 186° |
| 2026-05-08 07:19 | 28.89463 | 113.75047 | 30246 ft | 483 kts | 186° |
| 2026-05-08 07:20 | 28.82726 | 113.75242 | 30245 ft | 483 kts | 186° |
| 2026-05-08 07:20 | 28.76003 | 113.75436 | 30244 ft | 483 kts | 186° |
| 2026-05-08 07:21 | 28.69365 | 113.75313 | 30244 ft | 476 kts | 191° |
| 2026-05-08 07:21 | 28.62753 | 113.74728 | 30243 ft | 476 kts | 192° |
| 2026-05-08 07:22 | 28.56133 | 113.74207 | 30242 ft | 476 kts | 191° |
| 2026-05-08 07:22 | 28.49523 | 113.73716 | 30242 ft | 476 kts | 191° |
| 2026-05-08 07:23 | 28.42939 | 113.73234 | 30242 ft | 476 kts | 191° |
| 2026-05-08 07:23 | 28.36330 | 113.72750 | 30242 ft | 476 kts | 191° |
| 2026-05-08 07:24 | 28.29710 | 113.72269 | 30241 ft | 476 kts | 191° |
| 2026-05-08 07:24 | 28.23092 | 113.71795 | 30241 ft | 475 kts | 191° |
| 2026-05-08 07:25 | 28.16488 | 113.71310 | 30241 ft | 475 kts | 191° |
| 2026-05-08 07:26 | 28.06600 | 113.70500 | 30240 ft | 474 kts | 192° |
| 2026-05-08 07:26 | 28.00053 | 113.69914 | 30240 ft | 474 kts | 192° |
| 2026-05-08 07:27 | 27.93468 | 113.69323 | 30240 ft | 474 kts | 191° |
| 2026-05-08 07:27 | 27.86883 | 113.68734 | 30240 ft | 474 kts | 191° |
| 2026-05-08 07:28 | 27.80290 | 113.68146 | 30239 ft | 475 kts | 191° |
| 2026-05-08 07:28 | 27.73708 | 113.67559 | 30238 ft | 475 kts | 191° |
| 2026-05-08 07:29 | 27.67165 | 113.66977 | 30238 ft | 475 kts | 191° |
| 2026-05-08 07:29 | 27.60546 | 113.66540 | 30237 ft | 479 kts | 188° |
| 2026-05-08 07:30 | 27.53881 | 113.66462 | 30236 ft | 480 kts | 188° |
| 2026-05-08 07:30 | 27.47206 | 113.66334 | 30235 ft | 480 kts | 188° |
| 2026-05-08 07:31 | 27.40522 | 113.66189 | 30232 ft | 480 kts | 188° |
| 2026-05-08 07:31 | 27.33843 | 113.66042 | 30230 ft | 480 kts | 188° |
| 2026-05-08 07:32 | 27.27178 | 113.65894 | 30227 ft | 480 kts | 188° |
| 2026-05-08 07:32 | 27.20503 | 113.65846 | 30222 ft | 485 kts | 184° |
| 2026-05-08 07:33 | 27.13763 | 113.66840 | 30220 ft | 494 kts | 174° |
| 2026-05-08 07:33 | 27.07074 | 113.68836 | 30217 ft | 497 kts | 171° |
| 2026-05-08 07:34 | 27.00393 | 113.70868 | 30214 ft | 498 kts | 171° |
| 2026-05-08 07:34 | 26.93704 | 113.72850 | 30211 ft | 497 kts | 171° |
| 2026-05-08 07:35 | 26.87000 | 113.74824 | 30207 ft | 498 kts | 171° |
| 2026-05-08 07:35 | 26.80296 | 113.76794 | 30204 ft | 498 kts | 171° |
| 2026-05-08 07:36 | 26.73580 | 113.78769 | 30200 ft | 499 kts | 171° |
| 2026-05-08 07:36 | 26.66921 | 113.80864 | 30196 ft | 500 kts | 169° |
| 2026-05-08 07:37 | 26.60180 | 113.82984 | 30192 ft | 500 kts | 169° |
| 2026-05-08 07:37 | 26.53464 | 113.85086 | 30188 ft | 501 kts | 169° |
| 2026-05-08 07:38 | 26.46776 | 113.87147 | 30184 ft | 500 kts | 171° |
| 2026-05-08 07:38 | 26.40023 | 113.89066 | 30180 ft | 500 kts | 171° |
| 2026-05-08 07:39 | 26.33304 | 113.90996 | 30175 ft | 501 kts | 171° |
| 2026-05-08 07:39 | 26.26550 | 113.92953 | 30170 ft | 501 kts | 171° |
| 2026-05-08 07:40 | 26.19801 | 113.94898 | 30166 ft | 501 kts | 170° |
| 2026-05-08 07:40 | 26.13026 | 113.96848 | 30161 ft | 502 kts | 170° |
| 2026-05-08 07:41 | 26.06257 | 113.98793 | 30157 ft | 502 kts | 170° |
| 2026-05-08 07:41 | 25.99496 | 114.00748 | 30152 ft | 502 kts | 170° |
| 2026-05-08 07:42 | 25.92734 | 114.02754 | 30147 ft | 502 kts | 170° |
| 2026-05-08 07:42 | 25.86030 | 114.04737 | 30144 ft | 502 kts | 170° |
| 2026-05-08 07:43 | 25.79281 | 114.06731 | 30138 ft | 502 kts | 170° |
| 2026-05-08 07:43 | 25.72510 | 114.08728 | 30129 ft | 502 kts | 170° |
| 2026-05-08 07:44 | 25.65763 | 114.10723 | 30121 ft | 502 kts | 170° |
| 2026-05-08 07:44 | 25.59020 | 114.12715 | 30116 ft | 502 kts | 170° |
| 2026-05-08 07:45 | 25.52263 | 114.14705 | 30112 ft | 501 kts | 169° |
| 2026-05-08 07:45 | 25.45520 | 114.16687 | 30108 ft | 502 kts | 169° |
| 2026-05-08 07:46 | 25.38774 | 114.18674 | 30103 ft | 501 kts | 169° |
| 2026-05-08 07:46 | 25.32079 | 114.20641 | 30100 ft | 500 kts | 169° |
| 2026-05-08 07:47 | 25.25351 | 114.22610 | 30095 ft | 500 kts | 169° |
| 2026-05-08 07:47 | 25.18617 | 114.24579 | 30092 ft | 500 kts | 169° |
| 2026-05-08 07:48 | 25.11875 | 114.26289 | 30088 ft | 494 kts | 177° |
| 2026-05-08 07:48 | 25.05072 | 114.26252 | 30085 ft | 485 kts | 192° |
| 2026-05-08 07:49 | 24.98460 | 114.24972 | 30088 ft | 484 kts | 196° |
| 2026-05-08 07:49 | 24.91843 | 114.23464 | 30080 ft | 484 kts | 195° |
| 2026-05-08 07:50 | 24.85251 | 114.22032 | 30082 ft | 482 kts | 195° |
| 2026-05-08 07:50 | 24.78633 | 114.20627 | 30075 ft | 486 kts | 195° |
| 2026-05-08 07:51 | 24.72005 | 114.19200 | 30069 ft | 482 kts | 195° |
| 2026-05-08 07:51 | 24.65479 | 114.17807 | 30067 ft | 478 kts | 195° |
| 2026-05-08 07:52 | 24.59871 | 114.16611 | 30065 ft | 478 kts | 195° |
| 2026-05-08 07:52 | 24.53341 | 114.15224 | 30062 ft | 477 kts | 195° |
| 2026-05-08 07:53 | 24.46813 | 114.13841 | 30060 ft | 477 kts | 194° |
| 2026-05-08 07:53 | 24.40338 | 114.12470 | 30058 ft | 477 kts | 195° |
| 2026-05-08 07:54 | 24.34051 | 114.10308 | 30056 ft | 469 kts | 207° |
| 2026-05-08 07:54 | 24.28325 | 114.06927 | 30048 ft | 465 kts | 216° |
| 2026-05-08 07:55 | 24.22957 | 114.02973 | 30047 ft | 466 kts | 215° |
| 2026-05-08 07:55 | 24.17476 | 113.99241 | 30046 ft | 465 kts | 215° |
| 2026-05-08 07:56 | 24.12925 | 113.96087 | 30044 ft | 465 kts | 216° |
| 2026-05-08 07:56 | 24.07846 | 113.91751 | 30044 ft | 462 kts | 224° |
| 2026-05-08 07:57 | 24.03071 | 113.87040 | 30043 ft | 461 kts | 224° |
| 2026-05-08 07:57 | 23.98326 | 113.82366 | 30042 ft | 461 kts | 224° |
| 2026-05-08 07:58 | 23.93537 | 113.77665 | 30041 ft | 462 kts | 224° |
| 2026-05-08 07:58 | 23.89159 | 113.73373 | 30040 ft | 462 kts | 224° |
| 2026-05-08 07:59 | 23.84373 | 113.68680 | 30039 ft | 463 kts | 224° |
| 2026-05-08 07:59 | 23.79583 | 113.63969 | 30038 ft | 463 kts | 224° |
| 2026-05-08 08:00 | 23.74801 | 113.59269 | 30038 ft | 463 kts | 224° |
| 2026-05-08 08:00 | 23.70027 | 113.54599 | 30037 ft | 463 kts | 224° |
| 2026-05-08 08:01 | 23.65177 | 113.49870 | 30036 ft | 464 kts | 224° |
| 2026-05-08 08:01 | 23.60393 | 113.45211 | 30036 ft | 464 kts | 224° |
| 2026-05-08 08:02 | 23.55488 | 113.40618 | 30035 ft | 467 kts | 219° |
| 2026-05-08 08:02 | 23.49791 | 113.37119 | 30036 ft | 472 kts | 206° |
| 2026-05-08 08:03 | 23.43577 | 113.34676 | 30035 ft | 475 kts | 201° |
| 2026-05-08 08:03 | 23.37407 | 113.32422 | 30031 ft | 451 kts | 202° |
| 2026-05-08 08:03 | 23.34530 | 113.31351 | 30029 ft | 434 kts | 202° |
| 2026-05-08 08:04 | 23.31726 | 113.30298 | 30026 ft | 418 kts | 202° |
| 2026-05-08 08:04 | 23.29021 | 113.29277 | 30009 ft | 407 kts | 202° |
| 2026-05-08 08:04 | 23.26351 | 113.28273 | 29737 ft | 402 kts | 202° |
| 2026-05-08 08:04 | 23.23733 | 113.27290 | 29412 ft | 396 kts | 202° |
| 2026-05-08 08:05 | 23.21135 | 113.26315 | 28990 ft | 394 kts | 202° |
| 2026-05-08 08:05 | 23.18804 | 113.25441 | 28608 ft | 393 kts | 202° |
| 2026-05-08 08:05 | 23.16227 | 113.24475 | 28183 ft | 391 kts | 202° |
| 2026-05-08 08:05 | 23.13686 | 113.23523 | 27764 ft | 390 kts | 202° |
| 2026-05-08 08:06 | 23.11113 | 113.22559 | 27339 ft | 388 kts | 202° |
| 2026-05-08 08:06 | 23.08557 | 113.21605 | 26917 ft | 387 kts | 201° |
| 2026-05-08 08:06 | 23.05936 | 113.21062 | 26495 ft | 391 kts | 185° |
| 2026-05-08 08:06 | 23.03230 | 113.21403 | 26112 ft | 394 kts | 166° |
| 2026-05-08 08:07 | 23.00715 | 113.22606 | 25620 ft | 399 kts | 150° |
| 2026-05-08 08:07 | 22.98594 | 113.24581 | 24994 ft | 406 kts | 131° |
| 2026-05-08 08:07 | 22.97097 | 113.27179 | 24563 ft | 406 kts | 113° |
| 2026-05-08 08:07 | 22.96222 | 113.30081 | 24146 ft | 403 kts | 105° |
| 2026-05-08 08:08 | 22.95386 | 113.32985 | 23722 ft | 402 kts | 110° |
| 2026-05-08 08:08 | 22.94279 | 113.35756 | 23309 ft | 399 kts | 117° |
| 2026-05-08 08:08 | 22.92968 | 113.38411 | 22893 ft | 397 kts | 119° |
| 2026-05-08 08:08 | 22.91679 | 113.41006 | 22481 ft | 395 kts | 118° |
| 2026-05-08 08:09 | 22.90406 | 113.43643 | 22063 ft | 393 kts | 118° |
| 2026-05-08 08:09 | 22.88841 | 113.46054 | 21639 ft | 389 kts | 135° |
| 2026-05-08 08:09 | 22.86717 | 113.47820 | 21237 ft | 383 kts | 153° |
| 2026-05-08 08:09 | 22.84223 | 113.48805 | 20706 ft | 380 kts | 172° |
| 2026-05-08 08:10 | 22.81611 | 113.48934 | 20290 ft | 373 kts | 186° |
| 2026-05-08 08:10 | 22.79039 | 113.48637 | 19875 ft | 370 kts | 189° |
| 2026-05-08 08:10 | 22.76485 | 113.48339 | 19463 ft | 369 kts | 187° |
| 2026-05-08 08:10 | 22.73928 | 113.48124 | 19054 ft | 367 kts | 186° |
| 2026-05-08 08:11 | 22.71384 | 113.47978 | 18649 ft | 365 kts | 184° |
| 2026-05-08 08:11 | 22.68854 | 113.47868 | 18246 ft | 362 kts | 184° |
| 2026-05-08 08:11 | 22.66351 | 113.47777 | 17846 ft | 360 kts | 184° |
| 2026-05-08 08:11 | 22.63843 | 113.47695 | 17445 ft | 358 kts | 184° |
| 2026-05-08 08:12 | 22.61353 | 113.47620 | 17047 ft | 356 kts | 184° |
| 2026-05-08 08:12 | 22.58883 | 113.47548 | 16651 ft | 354 kts | 184° |
| 2026-05-08 08:12 | 22.56465 | 113.47480 | 16263 ft | 351 kts | 183° |
| 2026-05-08 08:12 | 22.54028 | 113.47412 | 15872 ft | 349 kts | 183° |
| 2026-05-08 08:13 | 22.51600 | 113.47345 | 15481 ft | 347 kts | 183° |
| 2026-05-08 08:13 | 22.49215 | 113.47280 | 15098 ft | 345 kts | 183° |
| 2026-05-08 08:13 | 22.46806 | 113.47215 | 14709 ft | 343 kts | 183° |
| 2026-05-08 08:13 | 22.44422 | 113.47150 | 14313 ft | 341 kts | 183° |
| 2026-05-08 08:14 | 22.42047 | 113.47086 | 13923 ft | 340 kts | 183° |
| 2026-05-08 08:14 | 22.39723 | 113.47024 | 13542 ft | 338 kts | 183° |
| 2026-05-08 08:14 | 22.37380 | 113.46961 | 13161 ft | 336 kts | 183° |
| 2026-05-08 08:14 | 22.35045 | 113.46898 | 12782 ft | 334 kts | 183° |
| 2026-05-08 08:15 | 22.32731 | 113.46836 | 12401 ft | 332 kts | 183° |
| 2026-05-08 08:15 | 22.30426 | 113.46774 | 12019 ft | 331 kts | 183° |
| 2026-05-08 08:15 | 22.28118 | 113.46712 | 11630 ft | 330 kts | 183° |
| 2026-05-08 08:15 | 22.25828 | 113.46650 | 11275 ft | 328 kts | 183° |
| 2026-05-08 08:16 | 22.23572 | 113.46432 | 10932 ft | 323 kts | 195° |
| 2026-05-08 08:16 | 22.21553 | 113.45454 | 10582 ft | 318 kts | 214° |
| 2026-05-08 08:16 | 22.19834 | 113.43961 | 10227 ft | 316 kts | 223° |
| 2026-05-08 08:16 | 22.18296 | 113.42360 | 10110 ft | 306 kts | 226° |
| 2026-05-08 08:17 | 22.16845 | 113.40748 | 10027 ft | 295 kts | 226° |
| 2026-05-08 08:17 | 22.15430 | 113.39190 | 9987 ft | 284 kts | 226° |
| 2026-05-08 08:17 | 22.14037 | 113.37672 | 9593 ft | 286 kts | 226° |
| 2026-05-08 08:17 | 22.12616 | 113.36134 | 9135 ft | 291 kts | 225° |
| 2026-05-08 08:18 | 22.11188 | 113.34595 | 8795 ft | 290 kts | 225° |
| 2026-05-08 08:18 | 22.09755 | 113.33054 | 8459 ft | 290 kts | 225° |
| 2026-05-08 08:18 | 22.08344 | 113.31539 | 8128 ft | 289 kts | 225° |
| 2026-05-08 08:18 | 22.06914 | 113.30005 | 7793 ft | 289 kts | 225° |
| 2026-05-08 08:19 | 22.05502 | 113.28491 | 7620 ft | 282 kts | 225° |
| 2026-05-08 08:19 | 22.04134 | 113.27024 | 7543 ft | 272 kts | 225° |
| 2026-05-08 08:19 | 22.02813 | 113.25609 | 7469 ft | 262 kts | 225° |
| 2026-05-08 08:19 | 22.01546 | 113.24251 | 7398 ft | 252 kts | 225° |
| 2026-05-08 08:20 | 22.00342 | 113.22951 | 7257 ft | 245 kts | 226° |
| 2026-05-08 08:20 | 21.99140 | 113.21645 | 6990 ft | 244 kts | 225° |
| 2026-05-08 08:20 | 21.97928 | 113.20362 | 6716 ft | 244 kts | 224° |
| 2026-05-08 08:20 | 21.96723 | 113.19084 | 6437 ft | 243 kts | 225° |
| 2026-05-08 08:21 | 21.95519 | 113.17804 | 6158 ft | 243 kts | 225° |
| 2026-05-08 08:21 | 21.94318 | 113.16525 | 5878 ft | 242 kts | 225° |
| 2026-05-08 08:21 | 21.93120 | 113.15249 | 5599 ft | 242 kts | 225° |
| 2026-05-08 08:21 | 21.91939 | 113.13991 | 5324 ft | 242 kts | 225° |
| 2026-05-08 08:22 | 21.90720 | 113.12712 | 5037 ft | 241 kts | 221° |
| 2026-05-08 08:22 | 21.89243 | 113.11902 | 4732 ft | 241 kts | 189° |
| 2026-05-08 08:22 | 21.87628 | 113.12131 | 4390 ft | 243 kts | 155° |
| 2026-05-08 08:22 | 21.86343 | 113.13317 | 4082 ft | 242 kts | 128° |
| 2026-05-08 08:23 | 21.85351 | 113.14748 | 3791 ft | 242 kts | 127° |
| 2026-05-08 08:23 | 21.84243 | 113.16140 | 3486 ft | 242 kts | 131° |
| 2026-05-08 08:23 | 21.83296 | 113.17599 | 3165 ft | 242 kts | 111° |
| 2026-05-08 08:23 | 21.83213 | 113.19351 | 3008 ft | 233 kts | 74° |
| 2026-05-08 08:24 | 21.84084 | 113.20758 | 3010 ft | 225 kts | 44° |
| 2026-05-08 08:24 | 21.85274 | 113.21838 | 3024 ft | 222 kts | 40° |
| 2026-05-08 08:24 | 21.86460 | 113.22895 | 2959 ft | 221 kts | 39° |
| 2026-05-08 08:24 | 21.87651 | 113.23923 | 2856 ft | 216 kts | 41° |
| 2026-05-08 08:25 | 21.88744 | 113.25014 | 2755 ft | 213 kts | 45° |
| 2026-05-08 08:25 | 21.89791 | 113.26132 | 2648 ft | 211 kts | 45° |
| 2026-05-08 08:25 | 21.90831 | 113.27237 | 2449 ft | 209 kts | 45° |
| 2026-05-08 08:25 | 21.91856 | 113.28324 | 2193 ft | 205 kts | 45° |
| 2026-05-08 08:26 | 21.92850 | 113.29377 | 1940 ft | 193 kts | 45° |
| 2026-05-08 08:26 | 21.93776 | 113.30358 | 1665 ft | 180 kts | 45° |
| 2026-05-08 08:26 | 21.94639 | 113.31272 | 1414 ft | 168 kts | 45° |
| 2026-05-08 08:26 | 21.95448 | 113.32128 | 1185 ft | 159 kts | 45° |
| 2026-05-08 08:27 | 21.96223 | 113.32950 | 980 ft | 154 kts | 45° |
| 2026-05-08 08:27 | 21.96979 | 113.33750 | 776 ft | 151 kts | 45° |